Time;durP1;ratioP1;P1;durP2;ratioP2;P2;SDS_P1;SDS_P2;PMS_P1;PMS_P2;Temp;Humidity;BMP_temperature;BMP_pressure;BME280_temperature;BME280_humidity;BME280_pressure;Samples;Min_cycle;Max_cycle;Signal;HPM_P1;HPM_P2
2022/09/08 00:00:43;;;;;;;7.87;2.73;;;21.40;99.90;;;;;;5060654;28;20862;-76
2022/09/08 00:03:11;;;;;;;5.57;2.63;;;21.20;99.90;;;;;;5080924;28;20196;-75
2022/09/08 00:06:02;;;;;;;6.20;2.80;;;21.10;99.90;;;;;;5050934;28;20176;-75
2022/09/08 00:08:28;;;;;;;4.83;2.30;;;21.00;99.90;;;;;;5082004;28;21360;-75
2022/09/08 00:10:57;;;;;;;2.60;1.90;;;20.90;99.90;;;;;;5082342;28;20342;-75
2022/09/08 00:13:25;;;;;;;3.03;1.80;;;20.70;99.90;;;;;;5084267;28;20329;-75
2022/09/08 00:15:52;;;;;;;2.93;1.60;;;20.60;99.90;;;;;;5083497;28;20194;-75
2022/09/08 00:18:19;;;;;;;2.83;1.80;;;20.50;99.90;;;;;;5085541;28;20196;-76
2022/09/08 00:20:45;;;;;;;2.63;1.83;;;20.40;99.90;;;;;;5062345;28;20196;-75
2022/09/08 00:23:11;;;;;;;2.97;1.80;;;20.40;99.90;;;;;;5078116;28;20265;-75
2022/09/08 00:25:37;;;;;;;4.07;1.87;;;20.40;99.90;;;;;;5048249;28;20616;-75
2022/09/08 00:28:03;;;;;;;2.90;1.90;;;20.40;99.90;;;;;;5081802;28;20204;-75
2022/09/08 00:30:30;;;;;;;2.30;1.90;;;20.40;99.90;;;;;;5067919;28;20211;-75
2022/09/08 00:32:57;;;;;;;3.47;1.63;;;20.40;99.90;;;;;;5085842;28;20283;-76
2022/09/08 00:35:22;;;;;;;2.90;1.80;;;20.40;99.90;;;;;;5086462;28;20176;-75
2022/09/08 00:37:51;;;;;;;1.77;1.50;;;20.30;99.90;;;;;;5089100;28;21712;-75
2022/09/08 00:40:19;;;;;;;3.23;1.60;;;20.30;99.90;;;;;;5089537;28;20191;-75
2022/09/08 00:42:45;;;;;;;2.10;1.90;;;20.30;99.90;;;;;;5075856;28;20722;-76
2022/09/08 00:45:15;;;;;;;2.40;1.70;;;20.30;99.90;;;;;;5061818;28;20271;-76
2022/09/08 00:47:46;;;;;;;1.67;1.57;;;20.30;99.90;;;;;;5082042;28;20219;-76
2022/09/08 00:50:24;;;;;;;1.77;1.67;;;20.30;99.90;;;;;;5066649;28;20713;-76
2022/09/08 00:53:03;;;;;;;3.27;1.90;;;20.30;99.90;;;;;;5079516;28;20208;-75
2022/09/08 00:55:32;;;;;;;2.20;2.00;;;20.30;99.90;;;;;;5063790;28;20192;-75
2022/09/08 00:57:58;;;;;;;3.63;2.00;;;20.30;99.90;;;;;;5089784;28;20258;-76
2022/09/08 01:00:24;;;;;;;3.40;2.20;;;20.20;99.90;;;;;;5084291;28;20181;-76
2022/09/08 01:02:50;;;;;;;2.50;1.90;;;20.20;99.90;;;;;;5082187;28;20188;-76
2022/09/08 01:05:20;;;;;;;2.63;1.97;;;20.20;99.90;;;;;;5082389;28;20591;-76
2022/09/08 01:14:10;;;;;;;2.33;2.13;;;20.00;99.90;;;;;;5078955;28;20218;-76
2022/09/08 01:16:39;;;;;;;2.40;2.10;;;19.90;99.90;;;;;;5076692;28;20188;-75
2022/09/08 01:19:23;;;;;;;2.50;2.10;;;19.90;99.90;;;;;;5084749;28;20203;-75
2022/09/08 01:22:26;;;;;;;4.53;2.23;;;19.90;99.90;;;;;;5080707;28;20275;-75
2022/09/08 01:25:18;;;;;;;2.17;1.83;;;19.90;99.90;;;;;;5063023;28;20176;-76
2022/09/08 01:27:50;;;;;;;2.30;2.10;;;19.80;99.90;;;;;;5074334;28;20216;-76
2022/09/08 01:30:16;;;;;;;2.57;1.80;;;19.70;99.90;;;;;;5061906;28;20207;-75
2022/09/08 01:32:43;;;;;;;2.50;2.00;;;19.70;99.90;;;;;;5079460;28;20204;-75
2022/09/08 01:35:10;;;;;;;2.70;2.00;;;19.80;99.90;;;;;;5074009;28;20260;-75
2022/09/08 01:37:36;;;;;;;2.93;2.03;;;19.80;99.90;;;;;;5085112;28;20840;-76
2022/09/08 01:40:03;;;;;;;2.63;2.03;;;19.80;99.90;;;;;;5081800;28;20314;-75
2022/09/08 01:42:29;;;;;;;2.83;2.03;;;19.80;99.90;;;;;;5077452;28;20264;-76
2022/09/08 01:44:56;;;;;;;3.13;2.20;;;19.80;99.90;;;;;;5080008;28;21164;-75
2022/09/08 01:47:21;;;;;;;2.37;2.10;;;19.70;99.90;;;;;;5064148;28;20192;-75
2022/09/08 01:49:47;;;;;;;4.03;2.20;;;19.70;99.90;;;;;;5067688;28;20852;-76
2022/09/08 01:52:13;;;;;;;3.90;2.00;;;19.60;99.90;;;;;;5062827;28;20793;-76
2022/09/08 01:54:39;;;;;;;3.40;2.00;;;19.60;99.90;;;;;;5081634;28;20177;-76
2022/09/08 01:57:04;;;;;;;2.30;2.10;;;19.60;99.90;;;;;;5081090;28;20186;-75
2022/09/08 01:59:30;;;;;;;1.93;1.77;;;19.60;99.90;;;;;;5059341;28;20240;-75
2022/09/08 02:01:56;;;;;;;2.67;2.10;;;19.70;99.90;;;;;;5091666;28;20263;-75
2022/09/08 02:04:22;;;;;;;3.93;2.30;;;19.70;99.90;;;;;;5079706;28;20176;-75
2022/09/08 02:06:47;;;;;;;2.70;2.17;;;19.70;99.90;;;;;;5084739;28;20180;-75
2022/09/08 02:09:13;;;;;;;4.30;2.50;;;19.70;99.90;;;;;;5079247;28;20205;-76
2022/09/08 02:11:39;;;;;;;3.57;2.40;;;19.60;99.90;;;;;;5080147;28;20176;-76
2022/09/08 02:14:05;;;;;;;2.77;2.03;;;19.60;99.90;;;;;;5061699;28;20687;-76
2022/09/08 02:16:31;;;;;;;3.50;2.10;;;19.50;99.90;;;;;;5078740;28;20230;-76
2022/09/08 02:18:57;;;;;;;3.50;2.30;;;19.40;99.90;;;;;;5063603;28;20210;-76
2022/09/08 02:21:27;;;;;;;3.20;1.93;;;19.40;99.90;;;;;;5076405;28;20259;-76
2022/09/08 02:23:54;;;;;;;4.03;2.40;;;19.30;99.90;;;;;;5081272;28;20187;-76
2022/09/08 02:26:22;;;;;;;3.30;2.20;;;19.30;99.90;;;;;;5079603;28;20176;-76
2022/09/08 02:28:52;;;;;;;2.67;2.10;;;19.30;99.90;;;;;;5081006;28;22105;-76
2022/09/08 02:31:18;;;;;;;2.27;2.07;;;19.30;99.90;;;;;;5076636;28;20235;-76
2022/09/08 02:33:44;;;;;;;2.30;1.90;;;19.30;99.90;;;;;;5058417;28;20200;-76
2022/09/08 02:36:10;;;;;;;2.80;1.93;;;19.30;99.90;;;;;;5060863;28;20188;-76
2022/09/08 02:38:36;;;;;;;2.67;1.90;;;19.30;99.90;;;;;;5077549;28;20234;-76
2022/09/08 02:41:01;;;;;;;2.23;2.00;;;19.30;99.90;;;;;;5083630;28;20648;-76
2022/09/08 02:43:29;;;;;;;2.73;2.00;;;19.30;99.90;;;;;;5090306;28;20849;-76
2022/09/08 02:45:55;;;;;;;3.77;1.97;;;19.30;99.90;;;;;;5089267;28;20180;-76
2022/09/08 02:48:20;;;;;;;2.83;2.10;;;19.30;99.90;;;;;;5083778;28;20289;-76
2022/09/08 02:50:46;;;;;;;3.67;2.10;;;19.30;99.90;;;;;;5066363;28;20176;-76
2022/09/08 02:53:12;;;;;;;2.97;2.00;;;19.30;99.90;;;;;;5073537;28;20263;-76
2022/09/08 02:55:39;;;;;;;2.47;2.10;;;19.30;99.90;;;;;;5043765;28;20184;-76
2022/09/08 02:58:07;;;;;;;5.13;2.50;;;19.40;99.90;;;;;;5078527;28;20599;-76
2022/09/08 03:00:34;;;;;;;3.57;2.83;;;19.30;99.90;;;;;;5064123;28;20181;-76
2022/09/08 03:03:00;;;;;;;4.13;2.43;;;19.20;99.90;;;;;;5068297;28;20184;-76
2022/09/08 03:05:27;;;;;;;4.27;2.50;;;19.20;99.90;;;;;;5080238;28;20646;-76
2022/09/08 03:07:53;;;;;;;5.90;2.70;;;19.10;99.90;;;;;;5068068;28;20200;-76
2022/09/08 03:10:23;;;;;;;3.30;2.27;;;19.10;99.90;;;;;;5075116;28;20184;-76
2022/09/08 03:12:53;;;;;;;3.67;2.20;;;19.10;99.90;;;;;;5084889;28;20188;-76
2022/09/08 03:15:20;;;;;;;2.83;2.30;;;19.10;99.90;;;;;;5077162;28;20221;-76
2022/09/08 03:17:46;;;;;;;2.27;1.93;;;19.10;99.90;;;;;;5087118;28;20197;-76
2022/09/08 03:20:12;;;;;;;3.33;2.17;;;19.00;99.90;;;;;;5064315;28;20184;-76
2022/09/08 03:22:38;;;;;;;3.37;2.37;;;19.00;99.90;;;;;;5084009;28;20204;-76
2022/09/08 03:25:05;;;;;;;3.47;2.40;;;19.00;99.90;;;;;;5088824;28;20886;-76
2022/09/08 03:27:30;;;;;;;3.73;2.40;;;19.10;99.90;;;;;;5082753;28;20932;-76
2022/09/08 03:29:56;;;;;;;4.00;2.23;;;19.10;99.90;;;;;;5052040;28;20215;-76
2022/09/08 03:32:22;;;;;;;3.43;2.50;;;19.10;99.90;;;;;;5080185;28;20573;-76
2022/09/08 03:34:48;;;;;;;4.20;2.70;;;19.10;99.90;;;;;;5088032;28;20238;-76
2022/09/08 03:37:14;;;;;;;3.07;2.50;;;19.00;99.90;;;;;;5092429;28;20195;-77
2022/09/08 03:39:40;;;;;;;4.43;2.80;;;19.00;99.90;;;;;;5081636;28;20183;-76
2022/09/08 03:42:05;;;;;;;4.20;2.67;;;19.00;99.90;;;;;;5085015;28;20210;-76
2022/09/08 03:44:34;;;;;;;4.70;2.87;;;19.00;99.90;;;;;;5102144;28;20733;-76
2022/09/08 03:47:00;;;;;;;6.07;3.40;;;19.10;99.90;;;;;;5088349;28;20210;-76
2022/09/08 03:49:26;;;;;;;5.23;3.50;;;19.10;99.90;;;;;;5091587;28;20721;-76
2022/09/08 03:51:52;;;;;;;4.43;3.00;;;19.10;99.90;;;;;;5072683;28;20202;-76
2022/09/08 03:57:02;;;;;;;6.27;3.90;;;19.10;99.90;;;;;;5083874;28;20204;-76
2022/09/08 03:59:29;;;;;;;5.80;4.27;;;19.10;99.90;;;;;;5099511;28;20585;-76
2022/09/08 04:01:56;;;;;;;5.47;4.13;;;19.20;99.90;;;;;;5074208;28;20247;-76
2022/09/08 04:04:23;;;;;;;5.27;4.30;;;19.20;99.90;;;;;;5089972;28;20188;-76
2022/09/08 04:06:49;;;;;;;5.90;4.23;;;19.20;99.90;;;;;;5086885;28;20731;-76
2022/09/08 04:09:16;;;;;;;5.60;4.20;;;19.10;99.90;;;;;;5097313;28;20199;-76
2022/09/08 04:11:42;;;;;;;5.77;4.60;;;19.10;99.90;;;;;;5089289;28;20209;-76
2022/09/08 04:14:08;;;;;;;5.90;4.63;;;19.10;99.90;;;;;;5097063;28;20241;-76
2022/09/08 04:16:35;;;;;;;7.47;5.03;;;19.10;99.90;;;;;;5066785;28;20271;-76
2022/09/08 04:19:00;;;;;;;6.80;5.23;;;19.10;99.90;;;;;;5090044;28;20634;-76
2022/09/08 04:21:26;;;;;;;6.17;5.20;;;19.10;99.90;;;;;;5084852;28;20197;-76
2022/09/08 04:23:52;;;;;;;8.07;6.80;;;19.00;99.90;;;;;;5078996;28;20658;-76
2022/09/08 04:26:18;;;;;;;5.33;4.70;;;19.00;99.90;;;;;;5097656;28;20441;-76
2022/09/08 04:28:44;;;;;;;5.63;3.70;;;19.00;99.90;;;;;;5064409;28;20204;-76
2022/09/08 04:31:13;;;;;;;5.20;4.20;;;19.00;99.90;;;;;;5097240;28;20183;-76
2022/09/08 04:33:40;;;;;;;4.87;4.20;;;19.00;99.90;;;;;;5077047;28;20252;-76
2022/09/08 04:36:08;;;;;;;5.93;4.50;;;19.00;99.90;;;;;;5092618;28;20516;-76
2022/09/08 04:38:33;;;;;;;5.47;4.10;;;19.00;99.90;;;;;;5088815;28;20633;-76
2022/09/08 04:41:06;;;;;;;4.07;2.97;;;19.10;99.90;;;;;;5093003;28;20308;-76
2022/09/08 04:43:33;;;;;;;4.13;2.97;;;19.10;99.90;;;;;;5086679;28;20189;-76
2022/09/08 04:46:08;;;;;;;4.57;2.90;;;19.10;99.90;;;;;;5093844;28;20639;-76
2022/09/08 04:48:35;;;;;;;3.30;2.80;;;19.10;99.90;;;;;;5090983;28;20210;-76
2022/09/08 04:51:01;;;;;;;4.87;2.80;;;19.10;99.90;;;;;;5070080;28;20176;-76
2022/09/08 04:53:29;;;;;;;2.40;2.03;;;19.00;99.90;;;;;;5087857;28;20345;-76
2022/09/08 04:55:54;;;;;;;4.30;2.80;;;19.00;99.90;;;;;;5087980;28;20191;-76
2022/09/08 04:58:21;;;;;;;11.87;4.80;;;19.00;99.90;;;;;;5086921;28;20196;-76
2022/09/08 05:00:48;;;;;;;17.23;5.70;;;18.90;99.90;;;;;;5091197;28;20181;-76
2022/09/08 05:03:14;;;;;;;7.07;4.40;;;18.80;99.90;;;;;;5089697;28;20188;-76
2022/09/08 05:05:40;;;;;;;6.30;3.95;;;18.80;99.90;;;;;;5080726;28;20440;-76
2022/09/08 05:08:06;;;;;;;5.90;3.63;;;18.80;99.90;;;;;;5081834;28;20204;-76
2022/09/08 05:10:32;;;;;;;3.50;2.60;;;18.90;99.90;;;;;;5091677;28;20188;-76
2022/09/08 05:12:58;;;;;;;4.27;3.13;;;18.90;99.90;;;;;;5079910;28;20195;-76
2022/09/08 05:15:25;;;;;;;4.10;3.07;;;18.90;99.90;;;;;;5075007;28;20189;-76
2022/09/08 05:17:51;;;;;;;4.37;3.23;;;18.80;99.90;;;;;;5066930;28;20487;-76
2022/09/08 05:20:17;;;;;;;4.83;2.77;;;18.90;99.90;;;;;;5088267;28;20750;-76
2022/09/08 05:22:43;;;;;;;4.03;2.97;;;18.90;99.90;;;;;;5080044;28;20181;-76
2022/09/08 05:25:09;;;;;;;4.80;3.40;;;18.80;99.90;;;;;;5077687;28;20184;-76
2022/09/08 05:27:35;;;;;;;4.87;3.40;;;18.80;99.90;;;;;;5097336;28;20242;-76
2022/09/08 05:30:01;;;;;;;5.27;3.77;;;18.80;99.90;;;;;;5056322;28;20177;-76
2022/09/08 05:32:26;;;;;;;3.80;3.20;;;18.80;99.90;;;;;;5079770;28;20280;-76
2022/09/08 05:34:52;;;;;;;5.17;3.13;;;18.80;99.90;;;;;;5088175;28;20250;-76
2022/09/08 05:37:18;;;;;;;3.53;2.90;;;18.80;99.90;;;;;;5088423;28;20204;-76
2022/09/08 05:39:46;;;;;;;5.47;3.50;;;18.80;99.90;;;;;;5088138;28;20526;-78
2022/09/08 05:42:13;;;;;;;4.60;3.30;;;18.90;99.90;;;;;;5059922;28;20686;-80
2022/09/08 05:44:38;;;;;;;4.43;3.30;;;18.80;99.90;;;;;;5076207;28;20176;-79
2022/09/08 05:47:04;;;;;;;4.03;3.33;;;18.80;99.90;;;;;;5071244;28;20181;-80
2022/09/08 05:49:31;;;;;;;5.17;3.90;;;18.90;99.90;;;;;;5086457;28;20212;-80
2022/09/08 05:51:58;;;;;;;5.27;3.87;;;18.90;99.90;;;;;;5077898;28;20229;-79
2022/09/08 05:54:24;;;;;;;3.73;3.33;;;18.90;99.90;;;;;;5095500;28;20248;-79
2022/09/08 05:56:50;;;;;;;4.37;3.43;;;19.00;99.90;;;;;;5071750;28;20189;-81
2022/09/08 05:59:16;;;;;;;4.67;4.07;;;18.90;99.90;;;;;;5096943;28;20639;-82
2022/09/08 06:01:42;;;;;;;3.50;3.20;;;19.00;99.90;;;;;;5063706;28;20271;-81
2022/09/08 06:04:09;;;;;;;5.17;3.40;;;19.00;99.90;;;;;;5056575;28;20558;-82
2022/09/08 06:06:35;;;;;;;3.97;3.57;;;19.10;99.90;;;;;;5056403;28;20193;-82
2022/09/08 06:09:03;;;;;;;6.83;3.90;;;19.10;99.90;;;;;;5067637;28;20208;-80
2022/09/08 06:11:32;;;;;;;4.47;3.27;;;19.10;99.90;;;;;;5060394;28;20188;-80
2022/09/08 06:13:58;;;;;;;3.73;3.43;;;19.10;99.90;;;;;;5078484;28;20607;-81
2022/09/08 06:16:24;;;;;;;4.67;3.97;;;19.10;99.90;;;;;;5070412;28;20667;-80
2022/09/08 06:18:50;;;;;;;6.43;5.77;;;19.10;99.90;;;;;;5035327;28;20200;-80
2022/09/08 06:21:17;;;;;;;5.23;4.23;;;19.20;99.90;;;;;;5070821;28;20256;-80
2022/09/08 06:23:46;;;;;;;4.40;4.00;;;19.20;99.90;;;;;;5073269;28;20188;-81
2022/09/08 06:26:15;;;;;;;8.00;4.10;;;19.30;99.90;;;;;;5057660;28;20784;-81
2022/09/08 06:28:48;;;;;;;6.23;3.90;;;19.30;99.90;;;;;;5075171;28;20203;-81
2022/09/08 06:31:27;;;;;;;5.47;3.70;;;19.40;99.90;;;;;;5033783;28;20181;-83
2022/09/08 06:33:54;;;;;;;5.17;4.20;;;19.40;99.90;;;;;;5071489;28;20199;-81
2022/09/08 06:36:25;;;;;;;6.30;4.10;;;19.40;99.90;;;;;;5085398;28;20176;-81
2022/09/08 06:38:54;;;;;;;4.47;3.60;;;19.40;99.90;;;;;;5073829;28;20318;-81
2022/09/08 06:41:28;;;;;;;4.50;3.40;;;19.40;99.90;;;;;;5063643;28;20533;-81
2022/09/08 06:44:20;;;;;;;4.60;3.50;;;19.40;99.90;;;;;;5088137;28;20188;-81
2022/09/08 06:46:47;;;;;;;3.40;2.87;;;19.40;99.90;;;;;;5066929;28;20197;-81
2022/09/08 06:49:13;;;;;;;3.33;3.00;;;19.40;99.90;;;;;;5096640;28;20204;-81
2022/09/08 06:51:46;;;;;;;3.53;2.30;;;19.50;99.90;;;;;;5064040;28;20693;-82
2022/09/08 06:54:20;;;;;;;2.40;2.20;;;19.50;99.90;;;;;;5099085;28;20753;-81
2022/09/08 06:56:59;;;;;;;2.83;1.90;;;19.50;99.90;;;;;;5089207;28;20184;-83
2022/09/08 06:59:40;;;;;;;2.03;1.83;;;19.50;99.90;;;;;;5083550;28;20239;-81
2022/09/08 07:02:07;;;;;;;2.33;2.00;;;19.40;99.90;;;;;;5082373;28;20209;-81
2022/09/08 07:05:02;;;;;;;2.47;1.93;;;19.50;99.90;;;;;;5087633;28;20298;-82
2022/09/08 07:07:33;;;;;;;1.90;1.50;;;19.50;99.90;;;;;;5053507;28;20243;-80
2022/09/08 07:10:18;;;;;;;3.07;1.80;;;19.50;99.90;;;;;;5091969;28;20180;-79
2022/09/08 07:13:02;;;;;;;2.00;1.80;;;19.50;99.90;;;;;;5087397;28;20203;-81
2022/09/08 07:15:45;;;;;;;2.30;1.40;;;19.50;99.90;;;;;;5052297;28;20248;-80
2022/09/08 07:18:24;;;;;;;1.87;1.60;;;19.60;99.90;;;;;;5061626;28;20665;-80
2022/09/08 07:21:03;;;;;;;2.63;1.50;;;19.60;99.90;;;;;;5082373;28;20194;-81
2022/09/08 07:23:36;;;;;;;1.60;1.50;;;19.50;99.90;;;;;;5073619;28;20349;-79
2022/09/08 07:26:10;;;;;;;1.67;1.40;;;19.60;99.90;;;;;;5055349;28;20200;-79
2022/09/08 07:28:43;;;;;;;3.43;1.50;;;19.60;99.90;;;;;;5077776;28;20750;-79
2022/09/08 07:31:20;;;;;;;2.57;1.97;;;19.50;99.90;;;;;;5083133;28;20222;-79
2022/09/08 07:33:51;;;;;;;3.63;1.80;;;19.50;99.90;;;;;;5066413;28;20584;-79
2022/09/08 07:36:29;;;;;;;2.37;2.10;;;19.50;99.90;;;;;;5075643;28;20648;-78
2022/09/08 07:38:56;;;;;;;3.73;2.20;;;19.40;99.90;;;;;;5071491;28;20212;-79
2022/09/08 07:41:40;;;;;;;2.43;2.20;;;19.40;99.90;;;;;;5090741;28;20188;-78
2022/09/08 07:44:19;;;;;;;3.60;2.00;;;19.40;99.90;;;;;;5065506;28;20187;-78
2022/09/08 07:47:05;;;;;;;3.30;2.00;;;19.50;99.90;;;;;;5072800;28;20211;-78
2022/09/08 07:50:00;;;;;;;2.10;1.90;;;19.40;99.90;;;;;;5087340;28;20199;-78
2022/09/08 07:53:02;;;;;;;1.90;1.60;;;19.50;99.90;;;;;;5089712;28;20253;-78
2022/09/08 07:55:47;;;;;;;2.50;1.60;;;19.50;99.90;;;;;;5096059;28;20890;-77
2022/09/08 07:58:25;;;;;;;2.23;1.60;;;19.40;99.90;;;;;;5076909;28;20216;-78
2022/09/08 08:01:05;;;;;;;1.93;1.50;;;19.50;99.90;;;;;;5085424;28;20181;-78
2022/09/08 08:03:47;;;;;;;3.43;1.50;;;19.50;99.90;;;;;;5071786;28;20195;-78
2022/09/08 08:06:34;;;;;;;2.00;1.50;;;19.60;99.90;;;;;;5095999;28;20267;-78
2022/09/08 08:09:12;;;;;;;2.23;1.40;;;19.70;99.90;;;;;;5051544;28;20853;-78
2022/09/08 08:12:29;;;;;;;1.70;1.33;;;19.70;99.90;;;;;;5093228;28;20550;-78
2022/09/08 08:14:54;;;;;;;2.10;1.40;;;19.60;99.90;;;;;;5067558;28;20189;-78
2022/09/08 08:17:31;;;;;;;1.90;1.80;;;19.60;99.90;;;;;;5092946;28;20185;-78
2022/09/08 08:20:12;;;;;;;3.33;1.90;;;19.60;99.90;;;;;;5091497;28;20175;-78
2022/09/08 08:23:01;;;;;;;2.10;1.80;;;19.60;99.90;;;;;;5079828;28;20188;-78
2022/09/08 08:25:34;;;;;;;2.60;1.77;;;19.70;99.90;;;;;;5077164;28;20200;-78
2022/09/08 08:28:17;;;;;;;2.40;1.70;;;19.70;99.90;;;;;;5096182;28;20366;-78
2022/09/08 08:31:26;;;;;;;2.70;1.70;;;19.70;99.90;;;;;;5078054;28;20177;-78
2022/09/08 08:34:04;;;;;;;2.47;1.70;;;19.70;99.90;;;;;;5093163;28;20224;-78
2022/09/08 08:36:35;;;;;;;2.87;1.60;;;19.80;99.90;;;;;;5073362;28;20180;-78
2022/09/08 08:39:16;;;;;;;2.77;1.83;;;20.00;99.90;;;;;;5086872;28;20715;-78
2022/09/08 08:41:45;;;;;;;3.03;2.00;;;20.10;99.90;;;;;;5085995;28;20862;-78
2022/09/08 08:44:29;;;;;;;2.03;1.50;;;20.30;99.90;;;;;;5089393;28;20242;-77
2022/09/08 08:47:27;;;;;;;2.83;1.57;;;20.40;99.90;;;;;;5068712;28;20317;-78
2022/09/08 08:50:08;;;;;;;1.93;1.60;;;20.40;99.90;;;;;;5066258;28;20181;-78
2022/09/08 08:52:53;;;;;;;1.93;1.80;;;20.30;99.90;;;;;;5070093;28;20620;-78
2022/09/08 08:55:58;;;;;;;1.93;1.83;;;20.20;99.90;;;;;;5085778;28;20180;-78
2022/09/08 08:59:01;;;;;;;1.77;1.67;;;20.20;99.90;;;;;;5066930;28;20226;-80
2022/09/08 09:01:38;;;;;;;3.30;1.83;;;20.10;99.90;;;;;;5068819;28;20172;-77
2022/09/08 09:04:23;;;;;;;1.67;1.57;;;20.10;99.90;;;;;;5049507;28;20181;-77
2022/09/08 09:06:48;;;;;;;1.50;1.40;;;20.30;99.90;;;;;;5086695;28;20180;-77
2022/09/08 09:09:26;;;;;;;1.80;1.70;;;20.40;99.90;;;;;;5071431;28;20368;-77
2022/09/08 09:12:07;;;;;;;1.50;1.40;;;20.40;99.90;;;;;;5086742;28;20188;-77
2022/09/08 09:14:58;;;;;;;2.80;1.40;;;20.30;99.90;;;;;;5087127;28;20197;-77
2022/09/08 09:17:55;;;;;;;1.53;1.40;;;20.40;99.90;;;;;;5086017;28;20224;-77
2022/09/08 09:20:29;;;;;;;3.13;1.40;;;20.60;99.90;;;;;;5077259;28;20921;-77
2022/09/08 09:23:18;;;;;;;1.43;1.33;;;20.80;99.90;;;;;;5090039;28;20204;-77
2022/09/08 09:26:19;;;;;;;1.93;1.30;;;20.90;99.90;;;;;;5077034;28;20245;-77
2022/09/08 09:28:44;;;;;;;1.83;1.33;;;20.90;99.90;;;;;;5088247;28;20754;-77
2022/09/08 09:31:52;;;;;;;1.87;1.20;;;20.90;99.90;;;;;;5073501;28;20188;-77
2022/09/08 09:35:12;;;;;;;2.37;1.30;;;20.80;99.90;;;;;;5068680;28;20543;-77
2022/09/08 09:37:48;;;;;;;2.50;1.43;;;20.70;99.90;;;;;;5081214;28;20256;-77
2022/09/08 09:40:25;;;;;;;1.40;1.20;;;20.50;99.90;;;;;;5087068;28;20223;-77
2022/09/08 09:43:16;;;;;;;1.30;1.07;;;20.50;99.90;;;;;;5087240;28;20222;-77
2022/09/08 09:46:23;;;;;;;2.20;1.53;;;20.50;99.90;;;;;;5086156;28;20290;-77
2022/09/08 09:49:13;;;;;;;2.17;1.50;;;20.50;99.90;;;;;;5082469;28;20208;-79
2022/09/08 09:52:02;;;;;;;1.80;1.60;;;20.40;99.90;;;;;;5069502;28;20196;-82
2022/09/08 09:54:33;;;;;;;2.10;1.90;;;20.40;99.90;;;;;;5063090;28;20277;-80
2022/09/08 09:57:27;;;;;;;2.90;2.10;;;20.40;99.90;;;;;;5086950;28;20168;-78
2022/09/08 10:00:28;;;;;;;5.63;2.30;;;20.50;99.90;;;;;;5033610;28;20196;-78
2022/09/08 10:03:03;;;;;;;1.90;1.70;;;20.50;99.70;;;;;;5053295;28;20192;-77
2022/09/08 10:06:01;;;;;;;1.80;1.60;;;20.50;99.50;;;;;;5064909;28;20200;-76
2022/09/08 10:09:05;;;;;;;2.00;1.37;;;20.90;93.20;;;;;;5063942;28;20209;-78
2022/09/08 10:11:55;;;;;;;1.37;1.27;;;21.30;92.00;;;;;;5051783;28;20180;-80
2022/09/08 10:15:11;;;;;;;1.30;1.10;;;21.50;88.90;;;;;;5068956;28;20231;-78
2022/09/08 10:18:08;;;;;;;1.60;1.30;;;21.60;82.00;;;;;;5078988;28;20193;-80
2022/09/08 10:21:29;;;;;;;2.70;1.20;;;21.60;79.40;;;;;;5080512;28;20191;-80
2022/09/08 10:24:19;;;;;;;1.77;1.40;;;21.70;77.80;;;;;;5081471;28;20182;-79
2022/09/08 10:27:08;;;;;;;1.40;1.30;;;21.70;76.40;;;;;;5067731;28;20183;-81
2022/09/08 10:29:54;;;;;;;1.97;1.40;;;21.90;74.10;;;;;;5070515;28;20211;-82
2022/09/08 10:32:53;;;;;;;1.77;1.50;;;22.10;73.50;;;;;;5059794;28;20556;-80
2022/09/08 10:35:44;;;;;;;2.53;1.60;;;22.20;70.50;;;;;;5040334;28;20185;-80
2022/09/08 10:38:28;;;;;;;1.80;1.70;;;22.20;70.30;;;;;;5063592;28;20208;-80
2022/09/08 10:41:36;;;;;;;1.57;1.47;;;22.00;67.80;;;;;;5058530;28;20183;-80
2022/09/08 10:44:22;;;;;;;1.93;1.50;;;22.00;68.30;;;;;;5066645;28;20204;-81
2022/09/08 10:47:08;;;;;;;1.67;1.23;;;22.10;71.10;;;;;;5074060;28;20224;-80
2022/09/08 10:49:47;;;;;;;1.93;1.13;;;22.30;72.60;;;;;;5068799;28;20212;-80
2022/09/08 10:52:47;;;;;;;1.20;1.10;;;22.30;71.80;;;;;;5094222;28;20189;-84
2022/09/08 10:55:27;;;;;;;1.53;1.10;;;22.40;70.60;;;;;;5080843;28;20187;-84
2022/09/08 10:58:32;;;;;;;1.37;0.80;;;22.50;70.70;;;;;;5048552;28;20242;-84
2022/09/08 11:01:33;;;;;;;1.30;0.80;;;22.60;70.10;;;;;;5049024;28;20268;-84
2022/09/08 11:04:33;;;;;;;1.87;1.10;;;22.90;69.60;;;;;;5058333;28;20234;-84
2022/09/08 11:07:40;;;;;;;1.67;0.90;;;23.10;69.10;;;;;;5052324;28;20342;-81
2022/09/08 11:10:11;;;;;;;1.00;0.80;;;23.30;65.50;;;;;;5076411;28;20176;-81
2022/09/08 11:13:11;;;;;;;1.87;0.80;;;23.40;65.30;;;;;;5073468;28;20300;-82
2022/09/08 11:16:22;;;;;;;1.27;0.90;;;23.50;63.40;;;;;;5023819;28;20193;-81
2022/09/08 11:18:56;;;;;;;2.83;0.90;;;23.50;63.40;;;;;;5041827;28;21059;-82
2022/09/08 11:21:29;;;;;;;1.60;0.90;;;23.60;63.90;;;;;;5066499;28;20215;-80
2022/09/08 11:24:17;;;;;;;1.00;0.90;;;23.50;63.50;;;;;;5063471;28;20289;-80
2022/09/08 11:26:56;;;;;;;1.23;1.00;;;23.60;62.80;;;;;;5037782;28;20196;-81
2022/09/08 11:29:49;;;;;;;2.17;0.70;;;23.60;61.70;;;;;;5102351;28;20256;-80
2022/09/08 11:32:25;;;;;;;1.80;0.80;;;23.60;62.90;;;;;;5054059;28;20192;-82
2022/09/08 11:35:13;;;;;;;1.70;1.00;;;23.60;62.60;;;;;;5074633;28;20293;-80
2022/09/08 11:37:54;;;;;;;1.33;0.83;;;23.70;61.90;;;;;;5090918;28;20240;-80
2022/09/08 11:40:59;;;;;;;2.33;0.80;;;23.80;62.50;;;;;;5068952;28;20182;-79
2022/09/08 11:43:45;;;;;;;1.70;0.93;;;23.90;62.20;;;;;;5074664;28;20229;-82
2022/09/08 11:46:26;;;;;;;1.77;0.87;;;24.10;61.30;;;;;;5071713;28;21097;-80
2022/09/08 11:49:11;;;;;;;0.70;0.70;;;24.20;60.70;;;;;;5086654;28;20718;-80
2022/09/08 11:51:46;;;;;;;1.37;0.93;;;24.20;60.50;;;;;;5046391;28;20246;-81
2022/09/08 11:54:22;;;;;;;0.80;0.80;;;24.20;60.10;;;;;;5071514;28;20248;-81
2022/09/08 11:56:58;;;;;;;1.30;0.87;;;24.40;59.90;;;;;;5070561;28;21808;-81
2022/09/08 11:59:43;;;;;;;2.07;0.80;;;24.20;59.60;;;;;;5068692;28;20625;-79
2022/09/08 12:02:19;;;;;;;1.73;1.10;;;23.90;59.80;;;;;;5036265;28;20216;-80
2022/09/08 12:05:10;;;;;;;1.33;1.00;;;23.90;60.30;;;;;;5070819;28;20184;-82
2022/09/08 12:08:11;;;;;;;1.20;1.10;;;23.80;60.10;;;;;;5073042;28;20216;-81
2022/09/08 12:10:55;;;;;;;2.20;1.10;;;23.80;61.10;;;;;;5080144;28;20811;-81
2022/09/08 12:13:35;;;;;;;1.53;1.13;;;24.10;61.30;;;;;;5067437;28;20211;-80
2022/09/08 12:16:32;;;;;;;1.60;1.23;;;24.40;59.30;;;;;;5078936;28;20180;-80
2022/09/08 12:19:31;;;;;;;1.27;1.17;;;24.60;59.50;;;;;;5065522;28;20201;-86
2022/09/08 12:22:06;;;;;;;1.63;1.20;;;24.50;59.90;;;;;;5035181;28;20283;-79
2022/09/08 12:25:19;;;;;;;1.50;1.20;;;24.60;59.50;;;;;;5085727;28;20220;-81
2022/09/08 12:28:17;;;;;;;2.13;1.23;;;24.40;59.40;;;;;;5028994;28;20218;-83
2022/09/08 12:31:04;;;;;;;1.73;1.20;;;25.10;59.40;;;;;;5062836;28;20190;-78
2022/09/08 12:33:36;;;;;;;1.20;1.10;;;25.80;57.80;;;;;;5064595;28;20200;-80
2022/09/08 12:36:30;;;;;;;1.83;1.20;;;27.00;57.10;;;;;;5070843;28;20195;-82
2022/09/08 12:39:11;;;;;;;3.30;1.20;;;27.90;54.30;;;;;;5065934;28;20761;-79
2022/09/08 12:41:45;;;;;;;3.23;1.10;;;28.00;52.70;;;;;;5068391;28;20673;-78
2022/09/08 12:44:27;;;;;;;3.23;1.30;;;28.30;51.60;;;;;;5067942;28;20706;-78
2022/09/08 12:47:25;;;;;;;2.70;1.10;;;28.60;51.20;;;;;;5070217;28;20180;-79
2022/09/08 12:50:25;;;;;;;1.93;1.07;;;29.00;49.60;;;;;;5037103;28;20204;-79
2022/09/08 12:53:24;;;;;;;3.13;1.10;;;29.40;48.80;;;;;;5063664;28;20217;-79
2022/09/08 12:56:22;;;;;;;2.80;1.20;;;29.50;48.80;;;;;;5087947;28;20186;-78
2022/09/08 12:59:04;;;;;;;1.93;1.10;;;29.40;49.20;;;;;;5086020;28;20198;-78
2022/09/08 13:01:39;;;;;;;4.07;1.27;;;28.70;49.70;;;;;;5084580;28;20187;-78
2022/09/08 13:04:30;;;;;;;1.33;1.10;;;27.70;50.60;;;;;;5067115;28;20172;-77
2022/09/08 13:07:12;;;;;;;2.07;1.20;;;26.90;52.00;;;;;;5092347;28;20187;-79
2022/09/08 13:10:09;;;;;;;2.63;1.50;;;27.20;52.90;;;;;;5048269;28;20239;-78
2022/09/08 13:12:55;;;;;;;2.97;1.27;;;28.50;51.40;;;;;;5037450;28;20824;-78
2022/09/08 13:15:32;;;;;;;1.20;1.10;;;29.60;48.40;;;;;;5085817;28;20180;-79
2022/09/08 13:18:07;;;;;;;1.63;1.07;;;29.10;50.00;;;;;;5069114;28;20204;-78
2022/09/08 13:20:41;;;;;;;1.67;1.00;;;29.50;49.80;;;;;;5090291;28;20207;-79
2022/09/08 13:23:16;;;;;;;1.87;1.20;;;30.10;48.20;;;;;;5088579;28;20196;-81
2022/09/08 13:25:54;;;;;;;2.00;1.07;;;29.70;47.60;;;;;;5067402;28;20185;-79
2022/09/08 13:28:54;;;;;;;1.93;1.20;;;29.00;48.70;;;;;;5066034;28;20231;-81
2022/09/08 13:31:41;;;;;;;2.10;1.20;;;28.20;50.10;;;;;;5086331;28;20179;-79
2022/09/08 13:34:19;;;;;;;2.20;1.10;;;27.30;50.50;;;;;;5086391;28;20294;-80
2022/09/08 13:37:36;;;;;;;1.57;0.90;;;26.90;50.80;;;;;;5053211;28;20188;-79
2022/09/08 13:40:13;;;;;;;3.07;1.13;;;27.60;50.50;;;;;;5047052;28;20207;-80
2022/09/08 13:43:00;;;;;;;1.83;1.33;;;27.50;50.40;;;;;;5065925;28;20184;-79
2022/09/08 13:45:47;;;;;;;1.77;1.20;;;27.90;50.50;;;;;;5074871;28;20202;-80